ADDS METAR Data INFO
IDs: Format: Raw Decoded Include TAF

Data at: 0717 UTC 24 Jun 2018

KPNT 240655Z AUTO 00000KT 7SM OVC085 19/18 A2986 RMK AO2 T01850182
KPNT 240635Z AUTO 26003KT 10SM OVC075 19/19 A2986 RMK AO2 T01870185
KPNT 240615Z AUTO 25003KT 10SM OVC075 19/19 A2985 RMK AO2 T01900186
KPNT 240555Z AUTO 00000KT 10SM SCT075 OVC090 19/19 A2985 RMK AO2 T01900187 10207 20186 402250169
KPNT 240535Z AUTO 24003KT 10SM OVC090 19/19 A2985 RMK AO2 T01890185
KPNT 240515Z AUTO 00000KT 10SM OVC100 19/19 A2985 RMK AO2 T01880185
KPNT 240455Z AUTO 00000KT 10SM BKN100 19/19 A2985 RMK AO2 T01880185
KPNT 240435Z AUTO 24003KT 10SM SCT110 19/18 A2985 RMK AO2 T01860184
KPNT 240415Z AUTO 25003KT 10SM SCT065 19/19 A2984 RMK AO2 T01900187
KPNT 240355Z AUTO 24004KT 10SM SCT060 SCT075 SCT110 20/19 A2985 RMK AO2 T01950191
KPNT 240335Z AUTO 24003KT 10SM BKN060 BKN075 OVC110 20/20 A2984 RMK AO2 T01970195
KPNT 240315Z AUTO 26003KT 10SM BKN060 OVC100 20/20 A2984 RMK AO2 T01980195
KPNT 240255Z AUTO 26003KT 10SM SCT060 OVC100 20/20 A2983 RMK AO2 T02000197
KPNT 240235Z AUTO 24003KT 10SM SCT080 OVC100 20/20 A2983 RMK AO2 T02010198
KPNT 240215Z AUTO 00000KT 10SM BKN080 OVC100 20/20 A2982 RMK AO2 T02030200
KPNT 240155Z AUTO 24003KT 10SM OVC080 20/20 A2982 RMK AO2 T02020200
KPNT 240135Z AUTO 00000KT 10SM BKN070 OVC080 20/20 A2982 RMK AO2 T02020200
KPNT 240115Z AUTO 25003KT 10SM OVC070 20/20 A2982 RMK AO2 T02020200
KPNT 240055Z AUTO 25003KT 10SM OVC070 20/20 A2980 RMK AO2 T02030200
KPNT 240035Z AUTO 26003KT 10SM OVC070 21/20 A2980 RMK AO2 T02050201
KPNT 240015Z AUTO 26003KT 10SM OVC060 21/20 A2980 RMK AO2 T02050202
KPNT 232355Z AUTO 25004KT 10SM SCT012 OVC060 21/21 A2980 RMK AO2 T02070205 10225 20205
KPNT 232335Z AUTO 26004KT 10SM SCT012 OVC060 21/21 A2979 RMK AO2 T02140210
KPNT 232315Z AUTO 22003KT 10SM OVC060 22/21 A2979 RMK AO2 T02150207
KPNT 232255Z AUTO 26004KT 10SM SCT048 OVC060 21/21 A2980 RMK AO2 T02110205
KPNT 232235Z AUTO 25008KT 10SM SCT048 OVC060 22/21 A2980 RMK AO2 T02190209
KPNT 232215Z AUTO 26003KT 10SM SCT037 SCT060 OVC065 22/20 A2980 RMK AO2 T02200202
KPNT 232155Z AUTO 25004KT 10SM SCT021 BKN049 OVC055 22/21 A2980 RMK AO2 T02190206
KPNT 232135Z AUTO 24005KT 10SM SCT021 BKN040 OVC046 22/21 A2980 RMK AO2 T02200205
KPNT 232115Z AUTO 26003KT 10SM SCT032 BKN040 OVC046 22/21 A2980 RMK AO2 T02210205
KPNT 232055Z AUTO 26004KT 10SM SCT032 OVC042 22/20 A2980 RMK AO2 T02210203
KPNT 232035Z AUTO 25003KT 10SM SCT022 SCT033 OVC042 22/20 A2979 RMK AO2 T02230200
KPNT 232015Z AUTO 28004KT 10SM SCT015 SCT021 OVC036 22/20 A2979 RMK AO2 T02230200
KPNT 231955Z AUTO 24003KT 10SM SCT015 OVC034 22/21 A2978 RMK AO2 T02220205
KPNT 231935Z AUTO 22005KT 10SM SCT015 SCT020 OVC033 22/21 A2979 RMK AO2 T02180207
KPNT 231915Z AUTO 25004KT 10SM SCT015 OVC029 22/20 A2979 RMK AO2 T02150204
KPNT 231855Z AUTO 24004KT 10SM OVC029 21/20 A2979 RMK AO2 T02100201
KPNT 231835Z AUTO 23005KT 10SM OVC029 21/20 A2979 RMK AO2 T02090200
KPNT 231815Z AUTO 22003KT 10SM BKN023 OVC029 21/20 A2979 RMK AO2 T02080198
KPNT 231755Z AUTO 00000KT 10SM OVC021 21/20 A2979 RMK AO2 T02050200 10205 20175
KPNT 231735Z AUTO 23003KT 10SM OVC019 20/20 A2980 RMK AO2 T02010198
KPNT 231715Z AUTO 00000KT 7SM BKN010 OVC017 20/20 A2979 RMK AO2 T02000197
KPNT 231655Z AUTO 00000KT 7SM BKN008 OVC013 20/20 A2979 RMK AO2 T02010197
KPNT 231635Z AUTO 27003KT 5SM BR OVC006 20/19 A2979 RMK AO2 T01950191
KPNT 231615Z AUTO 32004KT 5SM BR OVC006 19/19 A2979 RMK AO2 T01900187
KPNT 231555Z AUTO 00000KT 3SM BR OVC004 18/18 A2979 RMK AO2 T01840181
KPNT 231535Z AUTO 35005KT 3SM BR OVC004 19/18 A2978 RMK AO2 T01850181
KPNT 231515Z AUTO 33004KT 5SM BR OVC004 19/19 A2977 RMK AO2 T01890185
KPNT 231455Z AUTO 31004KT 4SM BR OVC004 18/18 A2978 RMK AO2 T01830180
KPNT 231435Z AUTO 26005KT 3SM BR OVC004 18/18 A2979 RMK AO2 T01800176
KPNT 231415Z AUTO 25005KT 2SM BR OVC004 18/18 A2980 RMK AO2 T01800176
KPNT 231355Z AUTO 24005KT 2 1/2SM BR OVC004 18/18 A2980 RMK AO2 T01800176
KPNT 231335Z AUTO 23006KT 4SM BR OVC004 18/18 A2980 RMK AO2 T01800177
KPNT 231315Z AUTO 26003KT 3SM BR OVC004 18/18 A2980 RMK AO2 T01800177
KPNT 231255Z AUTO 27003KT 3SM BR OVC004 18/18 A2978 RMK AO2 T01780175
KPNT 231235Z AUTO 00000KT 3SM BR OVC004 18/17 A2977 RMK AO2 T01760174
KPNT 231215Z AUTO 25003KT 1 1/4SM BR OVC002 18/17 A2976 RMK AO2 T01750172
KPNT 231155Z AUTO 32003KT 1 1/2SM BR OVC002 18/17 A2975 RMK AO2 70001 T01750171 10175 20169
KPNT 231135Z AUTO 26004KT 1 3/4SM BR OVC002 17/17 A2975 RMK AO2 T01730170
KPNT 231115Z AUTO 33005KT 2SM BR OVC002 17/17 A2974 RMK AO2 T01720170
KPNT 231055Z AUTO 30004KT 1 1/2SM BR OVC002 17/17 A2975 RMK AO2 T01710169
KPNT 231035Z AUTO 28004KT 2SM BR OVC004 17/17 A2975 RMK AO2 T01710168
KPNT 231015Z AUTO 24005KT 2SM BR OVC004 17/17 A2975 RMK AO2 T01700167
KPNT 230955Z AUTO 32003KT 1 3/4SM BR OVC004 17/17 A2974 RMK AO2 T01700167
KPNT 230935Z AUTO 27005KT 2SM BR OVC004 17/17 A2975 RMK AO2 T01700167
KPNT 230915Z AUTO 26004KT 1 3/4SM BR OVC004 17/17 A2975 RMK AO2 T01700167
KPNT 230855Z AUTO 25005KT 1 3/4SM BR OVC004 17/17 A2975 RMK AO2 T01700166
KPNT 230835Z AUTO 27006KT 1 1/4SM -DZ OVC004 17/17 A2976 RMK AO2 T01700166
KPNT 230815Z AUTO 27003KT 1 1/4SM BR OVC004 17/17 A2975 RMK AO2 T01700166
KPNT 230755Z AUTO 24004KT 2 1/2SM BR OVC004 17/17 A2975 RMK AO2 T01700167
KPNT 230735Z AUTO 00000KT 2SM BR OVC004 17/17 A2974 RMK AO2 T01690165
KPNT 230715Z AUTO 00000KT 2SM BR OVC004 17/17 A2974 RMK AO2 T01700166
KPNT 230655Z AUTO 00000KT 2SM BR OVC004 17/17 A2974 RMK AO2 T01700166
KPNT 230635Z AUTO 00000KT 2 1/2SM BR OVC004 17/17 A2973 RMK AO2 T01700167
KPNT 230615Z AUTO 01004KT 3SM BR OVC004 17/17 A2973 RMK AO2 T01700167
KPNT 230555Z AUTO 36003KT 4SM BR OVC006 17/17 A2973 RMK AO2 T01710168 10180 20171 402000171
KPNT 230535Z AUTO 36003KT 4SM BR OVC006 17/17 A2973 RMK AO2 T01710169
KPNT 230515Z AUTO 00000KT 4SM BR OVC006 17/17 A2974 RMK AO2 T01710169
KPNT 230455Z AUTO 00000KT 4SM BR OVC006 17/17 A2975 RMK AO2 T01720170
KPNT 230435Z AUTO 00000KT 5SM BR OVC006 17/17 A2975 RMK AO2 T01720170
KPNT 230415Z AUTO 35003KT 5SM BR OVC006 17/17 A2974 RMK AO2 T01720170
KPNT 230355Z AUTO 35003KT 4SM BR OVC006 17/17 A2974 RMK AO2 T01720170
KPNT 230335Z AUTO 33003KT 5SM BR OVC006 17/17 A2974 RMK AO2 T01720170
KPNT 230315Z AUTO 29003KT 5SM BR OVC006 17/17 A2974 RMK AO2 T01730170
KPNT 230255Z AUTO 00000KT 5SM BR OVC006 17/17 A2974 RMK AO2 T01730170
KPNT 230235Z AUTO 01003KT 5SM BR OVC006 17/17 A2974 RMK AO2 T01720170
KPNT 230215Z AUTO 01006KT 5SM BR OVC006 17/17 A2973 RMK AO2 T01730170
KPNT 230155Z AUTO 36006KT 3SM BR OVC006 17/17 A2973 RMK AO2 T01720170
KPNT 230135Z AUTO 35005KT 4SM BR OVC006 17/17 A2972 RMK AO2 T01730170
KPNT 230115Z AUTO 36006KT 4SM BR OVC008 18/17 A2972 RMK AO2 T01750171
KPNT 230055Z AUTO 36007KT 4SM BR OVC008 18/17 A2972 RMK AO2 T01750171
KPNT 230035Z AUTO 34006KT 4SM BR OVC008 18/17 A2973 RMK AO2 T01760173
KPNT 230015Z AUTO 35007KT 5SM BR OVC008 18/18 A2973 RMK AO2 T01770175
KPNT 222355Z AUTO 36008KT 10SM OVC008 18/18 A2973 RMK AO2 LTG DSNT E T01800177 10200 20180
KPNT 222335Z AUTO 35007KT 7SM OVC008 18/18 A2973 RMK AO2 T01840180
KPNT 222315Z AUTO 01006KT 5SM BR OVC008 19/18 A2973 RMK AO2 T01850181
KPNT 222255Z AUTO 01007KT 5SM BR OVC008 19/19 A2972 RMK AO2 T01880185
KPNT 222235Z AUTO 36006KT 5SM BR OVC008 19/19 A2972 RMK AO2 T01880185
KPNT 222215Z AUTO 36007KT 5SM BR OVC008 19/19 A2972 RMK AO2 T01900186
KPNT 222155Z AUTO 36006KT 7SM OVC008 19/19 A2972 RMK AO2 T01930190
KPNT 222135Z AUTO 01008KT 7SM OVC008 19/19 A2973 RMK AO2 LTG DSNT SE T01920189
KPNT 222115Z AUTO 01007KT 10SM OVC010 19/19 A2973 RMK AO2 T01930190
KPNT 222055Z AUTO 36007KT 10SM OVC010 20/19 A2973 RMK AO2 T01950191
KPNT 222035Z AUTO 01005KT 10SM OVC010 20/19 A2973 RMK AO2 LTG DSNT SE T01960193
KPNT 222015Z AUTO 02007KT 10SM OVC010 20/20 A2973 RMK AO2 LTG DSNT SE AND SW T01990195
KPNT 221955Z AUTO 02006KT 10SM OVC010 20/19 A2973 RMK AO2 T01950192
KPNT 221935Z AUTO 02007KT 10SM OVC008 20/20 A2972 RMK AO2 LTG DSNT SE T01970195